Time;durP1;ratioP1;P1;durP2;ratioP2;P2;SDS_P1;SDS_P2;PMS_P1;PMS_P2;Temp;Humidity;BMP_temperature;BMP_pressure;BME280_temperature;BME280_humidity;BME280_pressure;Samples;Min_cycle;Max_cycle;Signal;HPM_P1;HPM_P2
2022/09/01 00:00:29;;;;;;;12.35;5.30;;;17.80;99.90;;;;;;5072156;28;20378;-77
2022/09/01 00:02:56;;;;;;;15.77;4.90;;;17.90;99.90;;;;;;5072884;28;20457;-76
2022/09/01 00:05:23;;;;;;;15.20;5.00;;;17.90;99.90;;;;;;5072306;28;20877;-77
2022/09/01 00:07:51;;;;;;;13.27;4.78;;;18.00;99.90;;;;;;5072004;28;20763;-78
2022/09/01 00:10:18;;;;;;;12.70;4.70;;;18.00;99.90;;;;;;5071862;28;20366;-77
2022/09/01 00:12:45;;;;;;;14.95;4.50;;;18.10;99.90;;;;;;5072006;28;20386;-77
2022/09/01 00:15:13;;;;;;;14.88;4.47;;;18.10;99.90;;;;;;5071821;28;20402;-77
2022/09/01 00:17:40;;;;;;;15.05;4.35;;;18.20;99.90;;;;;;5071875;28;20927;-76
2022/09/01 00:20:09;;;;;;;14.20;4.40;;;18.40;99.90;;;;;;5071831;28;20382;-76
2022/09/01 00:22:36;;;;;;;12.52;4.18;;;18.60;99.90;;;;;;5072260;28;20407;-77
2022/09/01 00:25:05;;;;;;;11.75;3.42;;;18.90;99.90;;;;;;5071969;28;20393;-78
2022/09/01 00:27:32;;;;;;;10.80;3.33;;;19.20;99.90;;;;;;5073927;28;20718;-77
2022/09/01 00:30:00;;;;;;;10.88;3.50;;;19.20;99.90;;;;;;5075813;28;20457;-77
2022/09/01 00:32:28;;;;;;;11.23;3.15;;;19.00;99.90;;;;;;5075435;28;20388;-78
2022/09/01 00:34:55;;;;;;;11.13;3.20;;;19.00;99.90;;;;;;5075513;28;20413;-77
2022/09/01 00:37:23;;;;;;;11.02;3.28;;;18.90;99.90;;;;;;5075652;28;20453;-76
2022/09/01 00:39:50;;;;;;;13.25;3.40;;;18.90;99.90;;;;;;5075625;28;20431;-77
2022/09/01 00:42:17;;;;;;;13.37;3.30;;;19.00;99.90;;;;;;5075531;28;20845;-78
2022/09/01 00:44:44;;;;;;;11.25;3.30;;;19.20;99.90;;;;;;5075432;28;20388;-77
2022/09/01 00:47:13;;;;;;;13.90;3.55;;;19.40;99.90;;;;;;5075450;28;20452;-78
2022/09/01 00:49:48;;;;;;;10.40;3.60;;;19.80;99.90;;;;;;5075169;28;20384;-77
2022/09/01 00:52:18;;;;;;;12.73;4.07;;;20.00;99.90;;;;;;5075440;28;20370;-78
2022/09/01 00:54:53;;;;;;;11.27;3.55;;;20.00;99.90;;;;;;5075474;28;20428;-77
2022/09/01 00:57:21;;;;;;;12.00;3.88;;;19.90;99.90;;;;;;5074045;28;20381;-78
2022/09/01 01:00:20;;;;;;;10.73;3.95;;;19.80;99.90;;;;;;5075391;28;20448;-78
2022/09/01 01:02:54;;;;;;;14.70;4.20;;;19.70;99.90;;;;;;5074915;28;20379;-77
2022/09/01 01:05:26;;;;;;;11.90;4.03;;;19.70;99.90;;;;;;5075306;28;20377;-77
2022/09/01 01:07:55;;;;;;;9.88;4.10;;;19.80;99.90;;;;;;5075215;28;20430;-78
2022/09/01 01:10:25;;;;;;;9.87;3.60;;;19.80;99.90;;;;;;5075069;28;20366;-78
2022/09/01 01:12:52;;;;;;;8.67;3.00;;;20.00;99.90;;;;;;5075121;28;20385;-79
2022/09/01 01:15:20;;;;;;;10.13;3.42;;;20.10;99.90;;;;;;5074989;28;20726;-77
2022/09/01 01:17:48;;;;;;;11.40;3.30;;;20.20;99.90;;;;;;5076503;28;20408;-79
2022/09/01 01:23:16;;;;;;;11.82;3.63;;;19.90;99.90;;;;;;5080570;28;20397;-79
2022/09/01 01:25:45;;;;;;;8.95;3.40;;;20.10;99.90;;;;;;5080459;28;20370;-78
2022/09/01 01:28:29;;;;;;;11.63;3.60;;;20.50;99.90;;;;;;5077384;28;20374;-78
2022/09/01 01:31:04;;;;;;;9.18;3.40;;;21.10;99.90;;;;;;5077396;28;20358;-78
2022/09/01 01:33:41;;;;;;;9.38;2.95;;;21.70;99.90;;;;;;5075761;28;20445;-78
2022/09/01 01:36:18;;;;;;;9.65;3.25;;;22.30;99.40;;;;;;5075304;28;20374;-77
2022/09/01 01:38:48;;;;;;;8.40;2.95;;;22.10;98.00;;;;;;5073446;28;20423;-78
2022/09/01 01:41:20;;;;;;;9.90;2.80;;;22.30;99.00;;;;;;5074484;28;20382;-79
2022/09/01 01:43:49;;;;;;;5.85;2.63;;;22.70;97.50;;;;;;5075400;28;20714;-78
2022/09/01 01:46:17;;;;;;;8.00;2.50;;;22.70;96.80;;;;;;5075548;28;20385;-78
2022/09/01 01:48:46;;;;;;;8.85;2.50;;;22.70;95.80;;;;;;5074775;28;20419;-77
2022/09/01 01:51:18;;;;;;;8.75;2.40;;;23.10;95.70;;;;;;5074581;28;20374;-78
2022/09/01 01:53:51;;;;;;;6.10;2.03;;;23.40;92.60;;;;;;5074483;28;20398;-78
2022/09/01 01:56:21;;;;;;;9.02;2.30;;;23.30;90.90;;;;;;5074759;28;20366;-78
2022/09/01 01:58:48;;;;;;;8.35;2.20;;;22.70;91.50;;;;;;5074659;28;20373;-79
2022/09/01 02:01:17;;;;;;;9.88;2.80;;;22.40;92.20;;;;;;5074251;28;20477;-78
2022/09/01 02:03:44;;;;;;;10.90;2.47;;;22.20;93.60;;;;;;5074848;28;20392;-79
2022/09/01 02:06:12;;;;;;;8.02;2.40;;;22.40;93.80;;;;;;5081511;28;20386;-78
2022/09/01 02:08:40;;;;;;;8.20;2.55;;;22.30;92.90;;;;;;5074288;28;20463;-78
2022/09/01 02:11:07;;;;;;;11.25;2.78;;;21.90;94.40;;;;;;5074095;28;20374;-79
2022/09/01 02:13:35;;;;;;;9.20;2.75;;;21.50;94.90;;;;;;5074494;28;20962;-78
2022/09/01 02:16:06;;;;;;;7.88;2.58;;;21.20;95.90;;;;;;5074589;28;20435;-78
2022/09/01 02:18:37;;;;;;;6.00;2.30;;;21.40;95.40;;;;;;5074783;28;20790;-77
2022/09/01 02:21:11;;;;;;;7.00;2.60;;;22.20;94.10;;;;;;5074766;28;20382;-78
2022/09/01 02:23:39;;;;;;;8.20;2.80;;;23.00;93.20;;;;;;5074290;28;20402;-79
2022/09/01 02:26:10;;;;;;;4.93;2.03;;;23.70;88.70;;;;;;5074537;28;20876;-78
2022/09/01 02:28:41;;;;;;;7.27;2.40;;;23.20;86.00;;;;;;5074154;28;20385;-78
2022/09/01 02:31:10;;;;;;;6.18;2.47;;;22.80;89.30;;;;;;5073568;28;20439;-77
2022/09/01 02:33:39;;;;;;;6.50;2.30;;;22.70;91.70;;;;;;5073679;28;20413;-80
2022/09/01 02:36:12;;;;;;;9.32;3.00;;;22.80;91.50;;;;;;5074137;28;20381;-77
2022/09/01 02:38:43;;;;;;;7.43;2.60;;;23.00;91.20;;;;;;5073841;28;20869;-77
2022/09/01 02:41:11;;;;;;;7.10;2.77;;;23.30;91.10;;;;;;5073596;28;20378;-77
2022/09/01 02:43:39;;;;;;;8.07;2.88;;;23.70;91.00;;;;;;5073777;28;20737;-78
2022/09/01 02:46:06;;;;;;;6.38;2.53;;;23.80;88.20;;;;;;5076454;28;20382;-78
2022/09/01 02:48:36;;;;;;;6.90;2.40;;;23.80;89.10;;;;;;5072580;28;20727;-78
2022/09/01 02:51:07;;;;;;;8.85;2.53;;;24.50;84.50;;;;;;5071208;28;20719;-77
2022/09/01 02:53:36;;;;;;;5.93;2.50;;;25.30;79.90;;;;;;5073510;28;20366;-77
2022/09/01 02:56:10;;;;;;;7.03;2.50;;;25.00;78.70;;;;;;5073629;28;20382;-79
2022/09/01 02:58:44;;;;;;;6.53;2.17;;;24.30;78.00;;;;;;5073387;28;20366;-78
2022/09/01 03:01:32;;;;;;;6.63;2.17;;;24.20;79.50;;;;;;5073428;28;20385;-78
2022/09/01 03:04:04;;;;;;;5.85;2.28;;;24.00;78.10;;;;;;5073166;28;20860;-77
2022/09/01 03:06:33;;;;;;;8.95;2.30;;;23.80;78.80;;;;;;5073330;28;20461;-78
2022/09/01 03:09:01;;;;;;;6.45;2.10;;;23.80;79.70;;;;;;5073477;28;20374;-77
2022/09/01 03:11:30;;;;;;;5.45;2.10;;;23.70;79.20;;;;;;5073761;28;20382;-77
2022/09/01 03:13:58;;;;;;;6.72;2.10;;;24.10;79.50;;;;;;5073013;28;20754;-78
2022/09/01 03:16:25;;;;;;;7.43;2.22;;;24.50;79.60;;;;;;5105600;28;20384;-78
2022/09/01 03:18:53;;;;;;;4.43;1.98;;;25.30;76.90;;;;;;5073814;28;20891;-79
2022/09/01 03:21:22;;;;;;;6.40;2.17;;;26.50;71.90;;;;;;5076358;28;20386;-78
2022/09/01 03:23:51;;;;;;;6.97;1.98;;;27.00;68.80;;;;;;5072481;28;20465;-78
2022/09/01 03:26:21;;;;;;;4.13;1.90;;;27.40;64.60;;;;;;5072517;28;20796;-77
2022/09/01 03:28:50;;;;;;;5.10;1.80;;;27.40;63.30;;;;;;5072521;28;20366;-79
2022/09/01 03:31:18;;;;;;;6.70;2.03;;;27.20;63.30;;;;;;5072389;28;20374;-79
2022/09/01 03:33:46;;;;;;;5.32;2.00;;;27.20;64.10;;;;;;5072558;28;20406;-79
2022/09/01 03:36:17;;;;;;;5.18;1.90;;;28.10;63.40;;;;;;5072572;28;20375;-79
2022/09/01 03:38:49;;;;;;;5.97;1.80;;;28.90;59.10;;;;;;5072256;28;20377;-76
2022/09/01 03:41:20;;;;;;;5.63;2.00;;;29.40;57.80;;;;;;5072327;28;20385;-76
2022/09/01 03:43:48;;;;;;;5.30;1.70;;;29.00;56.90;;;;;;5072362;28;20367;-77
2022/09/01 03:46:23;;;;;;;5.25;1.70;;;29.00;55.60;;;;;;5072363;28;20872;-77
2022/09/01 03:48:57;;;;;;;4.22;1.80;;;29.30;55.30;;;;;;5072091;28;20373;-76
2022/09/01 03:51:25;;;;;;;4.40;1.90;;;28.80;56.40;;;;;;5072832;28;20370;-77
2022/09/01 03:53:53;;;;;;;5.38;2.03;;;29.20;56.20;;;;;;5072056;28;20473;-77
2022/09/01 03:56:24;;;;;;;7.43;2.15;;;29.80;54.80;;;;;;5072105;28;20366;-76
2022/09/01 03:58:53;;;;;;;4.13;1.77;;;29.90;54.90;;;;;;5072198;28;20373;-77
2022/09/01 04:01:21;;;;;;;4.40;2.00;;;29.50;55.00;;;;;;5072121;28;20393;-77
2022/09/01 04:03:49;;;;;;;6.28;1.88;;;28.60;55.50;;;;;;5076420;28;20427;-78
2022/09/01 04:06:18;;;;;;;3.80;1.60;;;27.60;55.50;;;;;;5076318;28;20454;-78
2022/09/01 04:08:46;;;;;;;3.77;1.50;;;26.70;57.70;;;;;;5076388;28;20733;-78
2022/09/01 04:11:22;;;;;;;3.78;1.80;;;26.00;58.20;;;;;;5076553;28;20386;-78
2022/09/01 04:13:50;;;;;;;5.70;1.90;;;25.50;60.10;;;;;;5077366;28;20718;-77
2022/09/01 04:19:14;;;;;;;5.05;2.00;;;25.70;62.40;;;;;;5077312;28;20393;-78
2022/09/01 04:22:00;;;;;;;6.15;1.92;;;26.20;61.70;;;;;;5076876;28;20465;-78
2022/09/01 04:24:30;;;;;;;4.80;1.80;;;26.00;61.90;;;;;;5084192;28;20419;-77
2022/09/01 04:27:00;;;;;;;4.25;1.80;;;27.00;59.00;;;;;;5090346;28;20369;-77
2022/09/01 04:29:30;;;;;;;3.80;1.70;;;27.80;59.00;;;;;;5089735;28;20426;-77
2022/09/01 04:32:04;;;;;;;3.88;1.63;;;29.00;55.30;;;;;;5077933;28;20920;-78
2022/09/01 04:34:38;;;;;;;4.80;1.70;;;29.80;54.00;;;;;;5079533;28;20394;-76
2022/09/01 04:37:16;;;;;;;3.28;1.63;;;30.40;53.00;;;;;;5078244;28;20959;-78
2022/09/01 04:39:51;;;;;;;5.95;2.00;;;30.80;51.40;;;;;;5079707;28;20357;-77
2022/09/01 04:42:20;;;;;;;4.63;2.00;;;30.90;51.90;;;;;;5079534;28;20451;-77
2022/09/01 04:44:47;;;;;;;5.43;1.88;;;30.90;51.70;;;;;;5079269;28;20390;-77
2022/09/01 04:47:17;;;;;;;5.30;1.90;;;31.20;51.30;;;;;;5077364;28;20881;-79
2022/09/01 04:49:47;;;;;;;4.72;1.80;;;31.30;50.80;;;;;;5076320;28;20409;-78
2022/09/01 04:52:14;;;;;;;3.80;1.55;;;31.20;50.20;;;;;;5075784;28;20382;-78
2022/09/01 04:54:44;;;;;;;3.90;1.60;;;31.10;49.50;;;;;;5075881;28;20451;-76
2022/09/01 04:57:11;;;;;;;3.53;1.50;;;30.70;49.70;;;;;;5075974;28;20370;-79
2022/09/01 04:59:38;;;;;;;4.50;1.47;;;30.60;50.00;;;;;;5075726;28;20370;-77
2022/09/01 05:02:08;;;;;;;3.45;1.50;;;30.30;51.20;;;;;;5075345;28;20370;-78
2022/09/01 05:04:36;;;;;;;4.10;1.45;;;30.70;49.30;;;;;;5075505;28;20410;-77
2022/09/01 05:07:04;;;;;;;3.83;1.50;;;30.40;48.50;;;;;;5075249;28;20439;-78
2022/09/01 05:09:36;;;;;;;4.60;1.30;;;29.90;49.60;;;;;;5075303;28;20738;-77
2022/09/01 05:12:09;;;;;;;2.45;1.30;;;29.70;49.90;;;;;;5075385;28;20374;-78
2022/09/01 05:14:42;;;;;;;3.25;1.40;;;29.60;50.30;;;;;;5075468;28;20408;-77
2022/09/01 05:17:13;;;;;;;4.60;1.30;;;29.80;49.30;;;;;;5075073;28;20734;-77
2022/09/01 05:19:43;;;;;;;3.40;1.40;;;30.00;49.50;;;;;;5075033;28;20370;-78
2022/09/01 05:22:12;;;;;;;3.70;1.50;;;30.20;48.20;;;;;;5074926;28;20362;-78
2022/09/01 05:24:39;;;;;;;4.30;1.38;;;30.20;48.20;;;;;;5074878;28;20367;-78
2022/09/01 05:27:07;;;;;;;2.35;1.40;;;30.10;48.20;;;;;;5074760;28;20428;-78
2022/09/01 05:29:36;;;;;;;2.72;1.42;;;30.00;49.40;;;;;;5075224;28;20467;-77
2022/09/01 05:32:08;;;;;;;2.92;1.38;;;29.90;48.80;;;;;;5074329;28;20399;-79
2022/09/01 05:34:37;;;;;;;6.65;1.73;;;29.40;49.40;;;;;;5074359;28;20449;-79
2022/09/01 05:37:07;;;;;;;2.33;1.20;;;29.10;50.10;;;;;;5074482;28;20378;-78
2022/09/01 05:39:36;;;;;;;4.78;1.48;;;29.20;50.00;;;;;;5074717;28;20370;-78
2022/09/01 05:42:06;;;;;;;4.40;1.55;;;29.10;49.60;;;;;;5074312;28;20374;-79
2022/09/01 05:44:34;;;;;;;3.63;1.40;;;28.80;50.10;;;;;;5074301;28;20374;-78
2022/09/01 05:47:04;;;;;;;4.88;1.50;;;28.60;50.60;;;;;;5074303;28;20401;-78
2022/09/01 05:49:31;;;;;;;2.92;1.52;;;28.40;50.60;;;;;;5074123;28;20377;-78
2022/09/01 05:51:59;;;;;;;5.38;1.80;;;28.30;51.80;;;;;;5074232;28;20779;-79
2022/09/01 05:54:27;;;;;;;5.15;1.40;;;28.10;51.80;;;;;;5074198;28;20424;-78
2022/09/01 05:57:00;;;;;;;5.88;1.60;;;28.00;51.60;;;;;;5074063;28;20382;-78
2022/09/01 05:59:30;;;;;;;3.65;1.45;;;27.70;51.70;;;;;;5074177;28;20378;-79
2022/09/01 06:01:59;;;;;;;5.47;1.48;;;27.30;52.70;;;;;;5074108;28;20733;-79
2022/09/01 06:04:28;;;;;;;3.85;1.50;;;26.90;53.30;;;;;;5074009;28;20366;-79
2022/09/01 06:06:56;;;;;;;5.47;1.60;;;26.10;53.40;;;;;;5073977;28;20409;-79
2022/09/01 06:09:23;;;;;;;4.90;1.50;;;25.30;55.60;;;;;;5073982;28;20370;-79
2022/09/01 06:11:50;;;;;;;5.47;1.67;;;24.70;57.70;;;;;;5073767;28;20435;-79
2022/09/01 06:14:18;;;;;;;4.03;1.42;;;24.60;57.60;;;;;;5073657;28;20402;-79
2022/09/01 06:16:46;;;;;;;3.67;1.52;;;24.50;57.80;;;;;;5073949;28;20382;-78
2022/09/01 06:19:13;;;;;;;4.18;1.50;;;24.10;58.10;;;;;;5073699;28;20362;-78
2022/09/01 06:21:41;;;;;;;4.00;1.30;;;23.40;59.90;;;;;;5073720;28;20378;-79
2022/09/01 06:24:08;;;;;;;4.40;1.42;;;22.90;60.70;;;;;;5073832;28;20427;-80
2022/09/01 06:26:38;;;;;;;2.38;1.40;;;22.60;61.40;;;;;;5073391;28;20367;-78
2022/09/01 06:29:14;;;;;;;3.05;1.30;;;22.20;62.40;;;;;;5073403;28;20846;-78
2022/09/01 06:31:42;;;;;;;4.22;1.40;;;22.00;63.90;;;;;;5073513;28;20416;-79
2022/09/01 06:34:16;;;;;;;5.90;1.60;;;22.00;64.10;;;;;;5071856;28;20409;-78
2022/09/01 06:36:46;;;;;;;3.83;1.60;;;22.10;64.20;;;;;;5073282;28;20370;-77
2022/09/01 06:39:18;;;;;;;4.40;1.58;;;22.10;65.00;;;;;;5073133;28;20375;-78
2022/09/01 06:41:48;;;;;;;3.22;1.63;;;22.10;64.00;;;;;;5105940;28;20738;-77
2022/09/01 06:44:21;;;;;;;3.63;1.60;;;22.10;65.00;;;;;;5074218;28;20374;-77
2022/09/01 06:46:50;;;;;;;3.30;1.60;;;21.90;65.20;;;;;;5073157;28;20457;-78
2022/09/01 06:49:17;;;;;;;2.72;1.35;;;21.70;65.80;;;;;;5073054;28;20366;-82
2022/09/01 06:51:47;;;;;;;3.75;1.40;;;21.60;66.30;;;;;;5071612;28;20382;-78
2022/09/01 06:54:16;;;;;;;4.47;1.52;;;21.50;66.90;;;;;;5072704;28;20386;-78
2022/09/01 06:56:43;;;;;;;5.60;2.00;;;21.40;67.20;;;;;;5071601;28;20386;-78
2022/09/01 06:59:11;;;;;;;9.60;3.10;;;21.30;69.70;;;;;;5072571;28;20855;-78
2022/09/01 07:01:38;;;;;;;8.77;2.55;;;21.20;78.40;;;;;;5072952;28;20380;-78
2022/09/01 07:04:06;;;;;;;9.48;2.97;;;21.00;84.70;;;;;;5072895;28;20373;-78
2022/09/01 07:06:34;;;;;;;11.27;3.47;;;20.80;92.20;;;;;;5072776;28;20385;-78
2022/09/01 07:09:01;;;;;;;9.70;2.95;;;20.70;95.60;;;;;;5072844;28;20482;-77
2022/09/01 07:11:32;;;;;;;14.15;3.55;;;20.60;98.00;;;;;;5072727;28;20462;-77
2022/09/01 07:14:03;;;;;;;10.43;3.30;;;20.50;99.90;;;;;;5072645;28;20394;-77
2022/09/01 07:16:35;;;;;;;12.60;3.20;;;20.40;99.90;;;;;;5071800;28;20855;-77
2022/09/01 07:19:05;;;;;;;11.95;3.17;;;20.30;99.90;;;;;;5072858;28;20362;-79
2022/09/01 07:21:32;;;;;;;9.77;2.85;;;20.20;99.90;;;;;;5072658;28;20434;-77
2022/09/01 07:24:03;;;;;;;10.60;3.03;;;20.00;99.90;;;;;;5072605;28;20373;-77
2022/09/01 07:26:30;;;;;;;9.18;2.95;;;19.80;99.90;;;;;;5072575;28;20382;-77
2022/09/01 07:28:57;;;;;;;14.25;3.15;;;19.70;99.90;;;;;;5072588;28;20442;-78
2022/09/01 07:31:28;;;;;;;11.17;3.20;;;19.60;99.90;;;;;;5072912;28;20515;-78
2022/09/01 07:33:57;;;;;;;12.73;3.90;;;19.40;99.90;;;;;;5072394;28;20394;-77
2022/09/01 07:36:25;;;;;;;10.32;3.20;;;19.20;99.90;;;;;;5072211;28;20374;-78
2022/09/01 07:38:53;;;;;;;9.85;3.10;;;19.10;99.90;;;;;;5072605;28;20452;-80
2022/09/01 07:41:23;;;;;;;14.50;3.30;;;19.00;99.90;;;;;;5072472;28;20385;-78
2022/09/01 07:43:52;;;;;;;11.73;3.22;;;18.80;99.90;;;;;;5072897;28;20378;-83
2022/09/01 07:46:21;;;;;;;10.48;2.85;;;18.70;99.90;;;;;;5071230;28;20431;-76
2022/09/01 07:48:49;;;;;;;14.33;3.13;;;18.60;99.90;;;;;;5073485;28;20873;-79
2022/09/01 07:51:19;;;;;;;11.57;3.00;;;18.60;99.90;;;;;;5073627;28;20370;-78
2022/09/01 07:53:48;;;;;;;13.02;3.30;;;18.60;99.90;;;;;;5077042;28;20766;-82
2022/09/01 07:56:17;;;;;;;12.57;3.10;;;18.50;99.90;;;;;;5077460;28;20858;-80
2022/09/01 07:58:46;;;;;;;13.02;3.08;;;18.40;99.90;;;;;;5077878;28;20374;-77
2022/09/01 08:01:26;;;;;;;10.63;3.17;;;18.40;99.90;;;;;;5078331;28;20401;-86
2022/09/01 08:03:56;;;;;;;13.60;3.30;;;18.40;99.90;;;;;;5110135;28;20389;-78
2022/09/01 08:06:25;;;;;;;12.52;3.13;;;18.30;99.90;;;;;;5075534;28;20398;-89
2022/09/01 08:08:55;;;;;;;15.80;3.13;;;18.30;99.90;;;;;;5075657;28;20377;-82
2022/09/01 08:11:27;;;;;;;14.68;3.40;;;18.20;99.90;;;;;;5075635;28;20385;-83
2022/09/01 08:14:00;;;;;;;12.55;3.40;;;18.20;99.90;;;;;;5077683;28;20417;-79
2022/09/01 08:16:47;;;;;;;12.40;3.25;;;18.10;99.90;;;;;;5074799;28;20413;-79
2022/09/01 08:19:17;;;;;;;12.70;3.10;;;18.00;99.90;;;;;;5076239;28;20394;-80
2022/09/01 08:21:44;;;;;;;13.32;3.75;;;18.00;99.90;;;;;;5078092;28;20374;-88
2022/09/01 08:24:13;;;;;;;21.90;9.45;;;17.90;99.90;;;;;;5117136;28;20370;-77
2022/09/01 08:26:41;;;;;;;25.30;12.52;;;17.80;99.90;;;;;;5075896;28;20865;-79
2022/09/01 08:29:09;;;;;;;111.07;69.28;;;17.70;99.90;;;;;;5076087;28;20749;-87
2022/09/01 08:31:36;;;;;;;48.37;24.00;;;17.60;99.90;;;;;;5078549;28;20382;-80
2022/09/01 08:34:04;;;;;;;42.33;21.30;;;17.50;99.90;;;;;;5076424;28;20409;-78
2022/09/01 08:36:34;;;;;;;17.85;4.60;;;17.50;99.90;;;;;;5075289;28;20374;-82
2022/09/01 08:39:01;;;;;;;14.10;3.92;;;17.40;99.90;;;;;;5076094;28;20421;-79
2022/09/01 08:42:08;;;;;;;13.13;3.75;;;17.30;99.90;;;;;;5075551;28;20405;-77
2022/09/01 08:44:54;;;;;;;17.10;3.70;;;17.30;99.90;;;;;;4994605;28;20404;-82
2022/09/01 08:47:21;;;;;;;15.52;3.88;;;17.30;99.90;;;;;;4995330;28;20383;-77
2022/09/01 08:49:50;;;;;;;13.10;3.80;;;17.30;99.90;;;;;;4999208;28;20730;-81
2022/09/01 08:52:23;;;;;;;14.73;3.60;;;17.30;99.90;;;;;;4998665;28;20389;-78
2022/09/01 08:54:53;;;;;;;13.60;3.35;;;17.40;99.90;;;;;;5013674;28;20409;-78
2022/09/01 08:57:25;;;;;;;13.27;3.50;;;17.40;99.90;;;;;;4998816;28;20432;-81
2022/09/01 08:59:53;;;;;;;15.23;3.80;;;17.40;99.90;;;;;;4998559;28;20385;-83
2022/09/01 09:02:31;;;;;;;16.70;3.47;;;17.40;99.90;;;;;;4998627;28;20430;-82
2022/09/01 09:05:28;;;;;;;14.73;3.60;;;17.30;99.90;;;;;;4998699;28;20443;-85
2022/09/01 09:08:04;;;;;;;14.05;3.40;;;17.30;99.90;;;;;;4998162;28;20373;-83
2022/09/01 09:10:54;;;;;;;14.10;3.87;;;17.30;99.90;;;;;;4997932;28;20391;-77
2022/09/01 09:13:39;;;;;;;13.45;3.63;;;17.20;99.90;;;;;;4997842;28;20372;-82
2022/09/01 09:16:16;;;;;;;18.42;3.55;;;17.10;99.90;;;;;;5014641;28;20390;-82
2022/09/01 09:18:50;;;;;;;16.48;3.40;;;17.10;99.90;;;;;;4994750;28;20377;-81
2022/09/01 09:21:43;;;;;;;16.53;3.70;;;17.00;99.90;;;;;;5031869;28;20402;-79
2022/09/01 09:24:54;;;;;;;16.08;3.45;;;17.00;99.90;;;;;;5077871;28;20402;-78
2022/09/01 09:27:32;;;;;;;12.32;3.28;;;17.00;99.90;;;;;;5078207;28;20394;-88
2022/09/01 09:29:59;;;;;;;12.02;3.22;;;16.90;99.90;;;;;;5078327;28;20363;-87
2022/09/01 09:32:59;;;;;;;15.82;3.65;;;17.00;99.90;;;;;;5078236;28;20390;-78
2022/09/01 09:35:26;;;;;;;15.70;3.47;;;17.10;99.90;;;;;;5077568;28;20448;-81
2022/09/01 09:37:54;;;;;;;15.65;3.70;;;17.10;99.90;;;;;;5076842;28;20370;-79
2022/09/01 09:40:27;;;;;;;15.95;3.92;;;17.10;99.90;;;;;;5076569;28;20439;-80
2022/09/01 09:43:00;;;;;;;16.83;4.00;;;17.00;99.90;;;;;;5078915;28;20864;-89
2022/09/01 09:45:27;;;;;;;16.70;4.50;;;16.90;99.90;;;;;;5077837;28;20370;-78
2022/09/01 09:47:56;;;;;;;18.87;4.20;;;16.90;99.90;;;;;;5076955;28;20417;-87
2022/09/01 09:50:38;;;;;;;16.27;4.30;;;16.80;99.90;;;;;;5075456;28;20381;-83
2022/09/01 09:53:31;;;;;;;15.25;3.90;;;16.80;99.90;;;;;;5075543;28;20374;-79
2022/09/01 09:56:08;;;;;;;17.87;3.67;;;16.70;99.90;;;;;;5073517;28;20386;-79
2022/09/01 09:58:41;;;;;;;13.80;3.80;;;16.60;99.90;;;;;;5074742;28;20370;-81
2022/09/01 10:01:14;;;;;;;14.10;3.60;;;16.50;99.90;;;;;;5075065;28;20380;-78
2022/09/01 10:03:56;;;;;;;13.80;3.42;;;16.40;99.90;;;;;;5074741;28;20389;-78
2022/09/01 10:06:40;;;;;;;21.05;7.13;;;16.40;99.90;;;;;;5075728;28;20362;-87
2022/09/01 10:09:14;;;;;;;20.73;5.90;;;16.30;99.90;;;;;;5075643;28;20420;-82
2022/09/01 10:11:48;;;;;;;13.68;4.68;;;16.20;99.90;;;;;;5077624;28;20842;-80
2022/09/01 10:14:33;;;;;;;16.08;4.00;;;16.20;99.90;;;;;;5076835;28;20386;-80
2022/09/01 10:17:12;;;;;;;15.90;3.67;;;16.10;99.90;;;;;;5076521;28;20378;-78
2022/09/01 10:19:45;;;;;;;13.97;3.53;;;16.00;99.90;;;;;;5076940;28;20365;-80
2022/09/01 10:22:12;;;;;;;17.20;3.80;;;15.90;99.90;;;;;;5076785;28;20760;-78
2022/09/01 10:24:39;;;;;;;15.10;3.95;;;15.80;99.90;;;;;;5075374;28;20463;-76
2022/09/01 10:27:28;;;;;;;16.42;3.78;;;15.80;99.90;;;;;;5075612;28;20386;-78
2022/09/01 10:30:21;;;;;;;15.13;3.65;;;15.70;99.90;;;;;;5076642;28;20359;-77
2022/09/01 10:32:54;;;;;;;18.43;3.90;;;15.60;99.90;;;;;;5071877;28;20544;-83
2022/09/01 10:35:36;;;;;;;13.18;3.50;;;15.50;99.90;;;;;;5074035;28;20405;-78
2022/09/01 10:38:07;;;;;;;16.75;3.67;;;15.40;99.90;;;;;;5074889;28;20363;-79
2022/09/01 10:40:39;;;;;;;15.55;3.38;;;15.40;99.90;;;;;;5072637;28;20865;-81
2022/09/01 10:43:40;;;;;;;14.88;3.67;;;15.30;99.90;;;;;;5072497;28;20381;-78
2022/09/01 10:46:33;;;;;;;13.88;3.35;;;15.30;99.90;;;;;;5076652;28;20371;-77
2022/09/01 10:49:01;;;;;;;15.98;3.60;;;15.20;99.90;;;;;;5073675;28;20370;-80
2022/09/01 10:51:28;;;;;;;17.85;3.38;;;15.20;99.90;;;;;;5074301;28;20386;-79
2022/09/01 10:54:00;;;;;;;15.07;3.65;;;15.20;99.90;;;;;;5075670;28;20393;-78
2022/09/01 10:56:46;;;;;;;14.87;3.40;;;15.10;99.90;;;;;;5071044;28;20751;-77
2022/09/01 10:59:28;;;;;;;16.80;3.63;;;15.10;99.90;;;;;;5073729;28;20374;-78
2022/09/01 11:01:55;;;;;;;12.65;3.65;;;15.10;99.90;;;;;;5074137;28;20433;-78
2022/09/01 11:04:28;;;;;;;16.02;3.72;;;15.00;99.90;;;;;;5075968;28;20378;-79
2022/09/01 11:07:25;;;;;;;15.90;4.50;;;14.90;99.90;;;;;;5074607;28;20375;-83
2022/09/01 11:10:30;;;;;;;17.15;5.10;;;14.80;99.90;;;;;;5074723;28;20370;-78
2022/09/01 11:13:26;;;;;;;14.73;4.40;;;14.80;99.90;;;;;;5036719;28;20531;-76
2022/09/01 11:15:53;;;;;;;16.65;4.15;;;14.80;99.90;;;;;;5033579;28;20466;-78
2022/09/01 11:18:30;;;;;;;17.25;4.20;;;14.70;99.90;;;;;;5031824;28;20377;-78
2022/09/01 11:21:28;;;;;;;14.48;3.60;;;14.60;99.90;;;;;;5031712;28;20382;-79
2022/09/01 11:24:34;;;;;;;14.17;4.03;;;14.60;99.90;;;;;;4972581;28;20471;-83
2022/09/01 11:27:01;;;;;;;13.53;3.87;;;14.50;99.90;;;;;;4972580;28;20469;-78
2022/09/01 11:30:09;;;;;;;14.82;3.63;;;14.50;99.90;;;;;;4972584;28;20393;-79
2022/09/01 11:32:40;;;;;;;15.82;3.85;;;14.50;99.90;;;;;;4966711;28;20418;-80
2022/09/01 11:35:18;;;;;;;18.75;5.03;;;14.50;99.90;;;;;;4972089;28;20802;-77
2022/09/01 11:37:51;;;;;;;20.52;4.78;;;14.50;99.90;;;;;;4972496;28;20379;-78
2022/09/01 11:40:31;;;;;;;16.13;4.68;;;14.60;99.90;;;;;;4972206;28;20382;-81
2022/09/01 11:43:04;;;;;;;22.15;5.22;;;14.60;99.90;;;;;;4940657;28;20385;-77
2022/09/01 11:45:35;;;;;;;17.45;4.55;;;14.60;99.90;;;;;;4972340;28;20374;-79
2022/09/01 11:48:09;;;;;;;14.80;4.68;;;14.60;99.90;;;;;;4955844;28;20401;-79
2022/09/01 11:50:38;;;;;;;17.77;4.60;;;14.60;99.90;;;;;;5000481;28;20379;-78
2022/09/01 11:53:08;;;;;;;17.08;4.72;;;14.60;99.90;;;;;;5010827;28;20378;-79
2022/09/01 11:55:43;;;;;;;14.32;4.32;;;14.60;99.90;;;;;;5011082;28;20488;-79
2022/09/01 11:58:12;;;;;;;17.27;4.57;;;14.60;99.90;;;;;;5011181;28;20379;-79
2022/09/01 12:00:41;;;;;;;15.90;4.45;;;14.60;99.90;;;;;;5037449;28;20779;-78
2022/09/01 12:03:23;;;;;;;16.73;4.55;;;14.60;99.90;;;;;;5070823;28;20370;-78
2022/09/01 12:06:04;;;;;;;19.73;4.80;;;14.60;99.90;;;;;;5072174;28;20375;-78
2022/09/01 12:08:36;;;;;;;17.45;6.57;;;14.60;99.90;;;;;;5072444;28;20449;-78
2022/09/01 12:11:17;;;;;;;19.95;5.85;;;14.50;99.90;;;;;;5072540;28;20449;-79
2022/09/01 12:13:58;;;;;;;19.95;6.20;;;14.40;99.90;;;;;;5072122;28;20366;-84
2022/09/01 12:16:27;;;;;;;19.70;7.50;;;14.40;99.90;;;;;;5072106;28;20374;-78
2022/09/01 12:18:57;;;;;;;21.35;7.07;;;14.30;99.90;;;;;;5071943;28;20387;-78
2022/09/01 12:21:29;;;;;;;19.27;6.53;;;14.40;99.90;;;;;;5072311;28;20366;-78
2022/09/01 12:24:18;;;;;;;18.30;6.17;;;14.30;99.90;;;;;;5075098;28;20426;-80
2022/09/01 12:26:48;;;;;;;16.05;5.50;;;14.20;99.90;;;;;;5076524;28;20955;-78
2022/09/01 12:29:17;;;;;;;19.23;5.35;;;14.20;99.90;;;;;;5076552;28;20626;-84
2022/09/01 12:31:49;;;;;;;17.08;4.90;;;14.20;99.90;;;;;;5076610;28;20749;-78
2022/09/01 12:34:39;;;;;;;21.70;5.28;;;14.10;99.90;;;;;;5075663;28;20409;-77
2022/09/01 12:37:12;;;;;;;24.02;6.35;;;14.10;99.90;;;;;;5076104;28;20453;-77
2022/09/01 12:39:42;;;;;;;19.60;6.05;;;14.10;99.90;;;;;;5076176;28;20386;-78
2022/09/01 12:42:18;;;;;;;18.90;6.40;;;14.10;99.90;;;;;;5075668;28;20439;-79
2022/09/01 12:44:52;;;;;;;17.23;6.07;;;14.10;99.90;;;;;;5076323;28;20358;-77
2022/09/01 12:47:35;;;;;;;18.02;6.18;;;14.00;99.90;;;;;;5075478;28;20738;-79
2022/09/01 12:50:22;;;;;;;18.58;5.53;;;14.00;99.90;;;;;;5075442;28;20373;-78
2022/09/01 12:52:53;;;;;;;20.58;6.43;;;13.90;99.90;;;;;;5075675;28;20370;-77
2022/09/01 12:55:24;;;;;;;15.15;5.43;;;13.90;99.90;;;;;;5076102;28;20402;-78
2022/09/01 12:58:03;;;;;;;16.80;5.18;;;13.80;99.90;;;;;;5074562;28;20723;-78
2022/09/01 13:00:33;;;;;;;16.20;5.55;;;13.80;99.90;;;;;;5076620;28;20378;-85
2022/09/01 13:03:22;;;;;;;18.38;5.45;;;13.80;99.90;;;;;;5075763;28;20394;-79
2022/09/01 13:05:54;;;;;;;18.23;5.43;;;13.80;99.90;;;;;;5075847;28;20435;-79
2022/09/01 13:08:28;;;;;;;17.08;5.60;;;13.70;99.90;;;;;;5079239;28;20396;-77
2022/09/01 13:11:11;;;;;;;16.00;5.20;;;13.70;99.90;;;;;;5081858;28;20414;-79
2022/09/01 13:13:39;;;;;;;17.75;5.68;;;13.60;99.90;;;;;;5081149;28;20868;-79